createdAt,value
2017-12-29T00:01:16.820Z,11.07
2017-12-29T00:03:44.371Z,12.40
2017-12-29T00:06:11.949Z,11.47
2017-12-29T00:08:39.590Z,16.05
2017-12-29T00:11:07.178Z,9.87
2017-12-29T00:13:34.727Z,12.23
2017-12-29T00:16:02.344Z,11.20
2017-12-29T00:18:29.928Z,13.93
2017-12-29T00:20:57.471Z,9.23
2017-12-29T00:23:25.065Z,9.13
2017-12-29T00:25:53.409Z,15.40
2017-12-29T00:28:20.955Z,11.70
2017-12-29T00:30:48.590Z,14.07
2017-12-29T00:33:16.399Z,7.62
2017-12-29T00:35:44.943Z,10.57
2017-12-29T00:38:12.507Z,10.02
2017-12-29T00:40:40.550Z,12.30
2017-12-29T00:43:08.120Z,7.10
2017-12-29T00:45:35.841Z,12.03
2017-12-29T00:48:03.379Z,9.90
2017-12-29T00:50:30.962Z,7.93
2017-12-29T00:52:58.551Z,6.03
2017-12-29T00:55:26.852Z,8.83
2017-12-29T00:57:54.383Z,7.65
2017-12-29T01:00:22.728Z,7.40
2017-12-29T01:02:50.262Z,7.43
2017-12-29T01:05:17.809Z,10.10
2017-12-29T01:07:45.384Z,7.50
2017-12-29T01:10:25.630Z,8.80
2017-12-29T01:15:25.067Z,10.90
2017-12-29T01:17:52.598Z,6.90
2017-12-29T01:20:20.128Z,8.57
2017-12-29T01:22:47.682Z,7.20
2017-12-29T01:25:15.635Z,12.10
2017-12-29T01:27:43.184Z,18.37
2017-12-29T01:30:10.747Z,8.53
2017-12-29T01:32:38.278Z,12.27
2017-12-29T01:35:05.816Z,9.67
2017-12-29T01:37:33.435Z,10.05
2017-12-29T01:40:00.971Z,10.43
2017-12-29T01:42:28.799Z,10.60
2017-12-29T01:44:56.363Z,12.13
2017-12-29T01:47:23.906Z,11.07
2017-12-29T01:49:51.443Z,9.93
2017-12-29T01:52:18.997Z,9.40
2017-12-29T01:54:46.535Z,9.60
2017-12-29T01:57:16.352Z,6.78
2017-12-29T01:59:43.981Z,10.87
2017-12-29T02:02:11.508Z,7.70
2017-12-29T02:04:39.047Z,9.60
2017-12-29T02:07:06.616Z,11.33
2017-12-29T02:09:34.211Z,8.17
2017-12-29T02:12:01.751Z,7.43
2017-12-29T02:14:30.078Z,10.70
2017-12-29T02:16:57.619Z,9.10
2017-12-29T02:19:25.147Z,11.50
2017-12-29T02:21:52.783Z,7.47
2017-12-29T02:24:20.310Z,6.80
2017-12-29T02:26:47.839Z,7.60
2017-12-29T02:29:16.452Z,9.15
2017-12-29T02:31:43.995Z,7.03
2017-12-29T02:34:11.536Z,5.90
2017-12-29T02:36:39.115Z,8.30
2017-12-29T02:39:06.653Z,7.43
2017-12-29T02:41:34.195Z,11.13
2017-12-29T02:44:02.220Z,6.03
2017-12-29T02:46:29.751Z,6.37
2017-12-29T02:48:57.280Z,7.30
2017-12-29T02:51:24.835Z,9.17
2017-12-29T02:53:52.362Z,6.12
2017-12-29T02:56:19.890Z,9.98
2017-12-29T02:58:48.254Z,7.62
2017-12-29T03:01:16.384Z,5.63
2017-12-29T03:03:43.928Z,7.50
2017-12-29T03:06:11.515Z,6.60
2017-12-29T03:08:39.064Z,7.03
2017-12-29T03:11:06.603Z,5.50
2017-12-29T03:13:34.359Z,5.70
2017-12-29T03:16:01.891Z,5.20
2017-12-29T03:18:29.427Z,7.40
2017-12-29T03:20:57.023Z,8.07
2017-12-29T03:23:25.322Z,7.10
2017-12-29T03:25:52.878Z,12.30
2017-12-29T03:28:20.478Z,4.04
2017-12-29T03:30:48.009Z,5.17
2017-12-29T03:33:16.386Z,6.62
2017-12-29T03:35:43.939Z,6.80
2017-12-29T03:38:11.483Z,5.30
2017-12-29T03:40:39.779Z,9.80
2017-12-29T03:43:07.343Z,8.90
2017-12-29T03:45:35.493Z,4.70
2017-12-29T03:48:03.027Z,5.50
2017-12-29T03:50:30.647Z,5.70
2017-12-29T03:52:58.178Z,4.30
2017-12-29T03:55:26.470Z,8.43
2017-12-29T03:57:54.064Z,4.57
2017-12-29T04:00:21.604Z,3.85
2017-12-29T04:02:49.157Z,3.90
2017-12-29T04:05:16.742Z,4.83
2017-12-29T04:07:44.282Z,4.87
2017-12-29T04:10:11.831Z,7.47
2017-12-29T04:12:39.419Z,3.97
2017-12-29T04:15:06.951Z,5.13
2017-12-29T04:17:34.504Z,3.90
2017-12-29T04:20:02.062Z,4.20
2017-12-29T04:22:29.596Z,3.80
2017-12-29T04:24:57.131Z,6.03
2017-12-29T04:27:24.691Z,8.67
2017-12-29T04:29:52.226Z,5.30
2017-12-29T04:32:19.759Z,7.70
2017-12-29T04:34:47.375Z,5.77
2017-12-29T04:37:16.447Z,7.30
2017-12-29T04:39:43.980Z,4.80
2017-12-29T04:42:11.534Z,6.00
2017-12-29T04:44:39.067Z,8.00
2017-12-29T04:47:06.734Z,5.20
2017-12-29T04:49:34.294Z,5.97
2017-12-29T04:52:01.840Z,8.10
2017-12-29T04:54:29.387Z,4.30
2017-12-29T04:56:57.004Z,5.33
2017-12-29T04:59:24.547Z,4.23
2017-12-29T05:01:52.847Z,4.60
2017-12-29T05:04:20.411Z,7.05
2017-12-29T05:06:48.698Z,6.83
2017-12-29T05:09:16.399Z,8.60
2017-12-29T05:11:43.956Z,8.10
2017-12-29T05:14:11.491Z,5.97
2017-12-29T05:16:39.023Z,7.80
2017-12-29T05:19:06.610Z,11.50
2017-12-29T05:21:34.149Z,4.57
2017-12-29T05:24:01.697Z,5.70
2017-12-29T05:26:29.270Z,7.00
2017-12-29T05:28:56.811Z,7.40
2017-12-29T05:31:24.351Z,8.25
2017-12-29T05:33:51.919Z,4.10
2017-12-29T05:36:19.464Z,5.15
2017-12-29T05:38:47.786Z,4.17
2017-12-29T05:41:16.458Z,8.73
2017-12-29T05:43:44.004Z,7.10
2017-12-29T05:46:12.334Z,5.50
2017-12-29T05:48:40.048Z,5.63
2017-12-29T05:51:07.628Z,5.20
2017-12-29T05:53:36.178Z,5.13
2017-12-29T05:56:03.743Z,6.57
2017-12-29T05:58:32.038Z,5.70
2017-12-29T06:00:59.570Z,11.85
2017-12-29T06:03:27.176Z,6.17
2017-12-29T06:05:54.708Z,5.03
2017-12-29T06:08:22.252Z,10.70
2017-12-29T06:10:49.814Z,5.80
2017-12-29T06:13:17.343Z,8.30
2017-12-29T06:15:44.873Z,5.73
2017-12-29T06:18:12.428Z,7.70
2017-12-29T06:20:39.959Z,11.53
2017-12-29T06:23:07.487Z,9.30
2017-12-29T06:25:35.398Z,10.23
2017-12-29T06:28:03.700Z,8.90
2017-12-29T06:30:32.010Z,11.03
2017-12-29T06:32:59.567Z,9.33
2017-12-29T06:35:27.099Z,6.77
2017-12-29T06:37:54.626Z,4.93
2017-12-29T06:40:22.182Z,9.83
2017-12-29T06:42:49.710Z,4.50
2017-12-29T06:45:17.238Z,4.40
2017-12-29T06:47:44.826Z,7.10
2017-12-29T06:50:12.599Z,6.93
2017-12-29T06:52:40.125Z,5.77
2017-12-29T06:55:07.694Z,6.60
2017-12-29T06:57:35.252Z,6.27
2017-12-29T07:00:02.787Z,6.30
2017-12-29T07:02:30.343Z,4.90
2017-12-29T07:04:57.887Z,4.77
2017-12-29T07:07:25.427Z,8.75
2017-12-29T07:09:53.053Z,7.63
2017-12-29T07:12:20.582Z,8.00
2017-12-29T07:14:48.123Z,4.90
2017-12-29T07:17:16.491Z,6.10
2017-12-29T07:19:44.064Z,5.03
2017-12-29T07:22:12.379Z,7.50
2017-12-29T07:24:39.938Z,13.60
2017-12-29T07:27:07.479Z,3.92
2017-12-29T07:29:35.019Z,11.17
2017-12-29T07:32:02.618Z,9.40
2017-12-29T07:34:30.162Z,18.90
2017-12-29T07:36:57.699Z,8.30
2017-12-29T07:39:26.039Z,6.50
2017-12-29T07:41:53.579Z,8.30
2017-12-29T07:44:21.139Z,7.93
2017-12-29T07:46:49.475Z,7.00
2017-12-29T07:49:17.785Z,9.77
2017-12-29T07:51:46.127Z,5.80
2017-12-29T07:54:15.536Z,5.65
2017-12-29T07:56:43.844Z,5.23
2017-12-29T07:59:11.378Z,5.47
2017-12-29T08:01:39.839Z,7.90
2017-12-29T08:04:07.416Z,7.95
2017-12-29T08:06:34.971Z,5.43
2017-12-29T08:09:03.304Z,6.80
2017-12-29T08:11:30.842Z,6.70
2017-12-29T08:13:58.379Z,8.80
2017-12-29T08:16:26.731Z,9.13
2017-12-29T08:18:54.262Z,9.77
2017-12-29T08:21:21.795Z,8.33
2017-12-29T08:23:49.346Z,6.20
2017-12-29T08:26:16.886Z,7.40
2017-12-29T08:28:44.474Z,6.90
2017-12-29T08:31:12.028Z,6.80
2017-12-29T08:33:39.585Z,8.23
2017-12-29T08:36:07.310Z,6.90
2017-12-29T08:38:34.898Z,10.47
2017-12-29T08:41:02.669Z,6.00
2017-12-29T08:43:31.719Z,6.10
2017-12-29T08:46:00.066Z,5.47
2017-12-29T08:48:27.599Z,9.18
2017-12-29T08:50:55.896Z,5.60
2017-12-29T08:53:23.798Z,5.40
2017-12-29T08:55:51.411Z,5.50
2017-12-29T08:58:18.955Z,7.57
2017-12-29T09:00:47.305Z,12.93
2017-12-29T09:03:16.395Z,6.87
2017-12-29T09:05:43.915Z,6.10
2017-12-29T09:08:11.662Z,5.28
2017-12-29T09:10:39.958Z,11.03
2017-12-29T09:13:07.487Z,11.07
2017-12-29T09:15:35.900Z,5.73
2017-12-29T09:18:03.534Z,5.22
2017-12-29T09:20:32.690Z,5.67
2017-12-29T09:23:01.766Z,5.00
2017-12-29T09:25:29.442Z,5.43
2017-12-29T09:27:56.983Z,6.53
2017-12-29T09:30:24.555Z,9.40
2017-12-29T09:32:52.239Z,7.07
2017-12-29T09:35:19.783Z,7.22
2017-12-29T09:37:47.355Z,6.07
2017-12-29T09:40:16.444Z,9.45
2017-12-29T09:42:43.977Z,8.27
2017-12-29T09:45:11.558Z,5.18
2017-12-29T09:47:39.087Z,5.07
2017-12-29T09:50:06.620Z,6.10
2017-12-29T09:52:34.938Z,7.27
2017-12-29T09:55:02.703Z,7.03
2017-12-29T09:57:30.283Z,5.70
2017-12-29T09:59:57.878Z,11.20
2017-12-29T10:02:25.399Z,7.00
2017-12-29T10:04:52.937Z,9.40
2017-12-29T10:07:20.570Z,8.30
2017-12-29T10:09:48.094Z,4.13
2017-12-29T10:12:16.415Z,4.70
2017-12-29T10:14:43.992Z,7.13
2017-12-29T10:17:11.557Z,5.20
2017-12-29T10:19:39.086Z,7.77
2017-12-29T10:22:06.788Z,5.20
2017-12-29T10:24:34.471Z,5.93
2017-12-29T10:27:02.000Z,5.13
2017-12-29T10:29:29.688Z,4.83
2017-12-29T10:31:57.236Z,9.23
2017-12-29T10:34:24.823Z,7.70
2017-12-29T10:36:52.384Z,6.70
2017-12-29T10:39:20.236Z,4.95
2017-12-29T10:41:47.832Z,5.57
2017-12-29T10:44:16.419Z,5.27
2017-12-29T10:46:44.718Z,5.07
2017-12-29T10:49:12.243Z,4.97
2017-12-29T10:51:39.828Z,5.80
2017-12-29T10:54:08.182Z,8.40
2017-12-29T10:56:36.057Z,5.77
2017-12-29T10:59:03.824Z,5.20
2017-12-29T11:01:31.379Z,5.47
2017-12-29T11:03:58.973Z,3.77
2017-12-29T11:06:28.055Z,5.07
2017-12-29T11:08:55.632Z,5.60
2017-12-29T11:11:23.171Z,6.50
2017-12-29T11:13:51.555Z,6.23
2017-12-29T11:16:19.879Z,4.70
2017-12-29T11:18:47.559Z,6.37
2017-12-29T11:21:16.541Z,6.03
2017-12-29T11:23:44.092Z,14.07
2017-12-29T11:26:11.678Z,4.53
2017-12-29T11:28:39.589Z,7.60
2017-12-29T11:31:07.251Z,4.73
2017-12-29T11:33:34.857Z,7.70
2017-12-29T11:36:02.673Z,6.50
2017-12-29T11:38:31.117Z,4.20
2017-12-29T11:40:59.768Z,4.37
2017-12-29T11:43:27.362Z,3.57
2017-12-29T11:45:55.881Z,3.67
2017-12-29T11:48:24.176Z,4.22
2017-12-29T11:50:51.722Z,5.30
2017-12-29T11:53:20.146Z,3.57
2017-12-29T11:55:47.666Z,8.30
2017-12-29T11:58:16.454Z,6.00
2017-12-29T12:00:44.004Z,4.10
2017-12-29T12:03:12.586Z,5.33
2017-12-29T12:05:40.179Z,4.33
2017-12-29T12:08:07.699Z,7.20
2017-12-29T12:10:36.187Z,8.10
2017-12-29T12:13:03.766Z,5.20
2017-12-29T12:15:31.323Z,5.83
2017-12-29T12:17:58.858Z,7.23
2017-12-29T12:20:26.514Z,9.00
2017-12-29T12:22:54.062Z,5.33
2017-12-29T12:25:22.389Z,4.90
2017-12-29T12:27:50.011Z,4.10
2017-12-29T12:30:17.539Z,9.10
2017-12-29T12:32:45.086Z,8.63
2017-12-29T12:35:12.645Z,9.80
2017-12-29T12:37:40.298Z,11.77
2017-12-29T12:40:07.831Z,5.20
2017-12-29T12:42:36.258Z,9.15
2017-12-29T12:45:03.859Z,4.83
2017-12-29T12:47:31.543Z,7.95
2017-12-29T12:49:59.923Z,8.50
2017-12-29T12:52:27.649Z,7.68
2017-12-29T12:54:55.262Z,6.27
2017-12-29T12:57:22.907Z,9.60
2017-12-29T12:59:51.579Z,4.70
2017-12-29T13:02:21.334Z,4.13
2017-12-29T13:04:49.351Z,12.43
2017-12-29T13:07:17.099Z,4.50
2017-12-29T13:09:45.460Z,6.23
2017-12-29T13:12:25.936Z,4.03
2017-12-29T13:17:41.483Z,3.63
2017-12-29T13:20:09.029Z,10.53
2017-12-29T13:22:37.505Z,5.43
2017-12-29T13:25:05.852Z,4.90
2017-12-29T13:27:33.487Z,3.10
2017-12-29T13:30:01.017Z,4.03
2017-12-29T13:32:29.346Z,6.20
2017-12-29T13:34:56.876Z,2.17
2017-12-29T13:37:24.407Z,3.10
2017-12-29T13:39:51.963Z,3.43
2017-12-29T13:42:19.488Z,3.00
2017-12-29T13:44:47.018Z,2.80
2017-12-29T13:47:15.589Z,2.43
2017-12-29T13:49:43.124Z,2.63
2017-12-29T13:52:11.469Z,3.03
2017-12-29T13:54:39.082Z,3.63
2017-12-29T13:57:06.611Z,2.87
2017-12-29T13:59:34.189Z,2.60
2017-12-29T14:02:02.499Z,3.17
2017-12-29T14:04:30.027Z,2.97
2017-12-29T14:06:58.408Z,10.63
2017-12-29T14:09:26.756Z,2.63
2017-12-29T14:11:54.280Z,2.80
2017-12-29T14:14:21.804Z,4.20
2017-12-29T14:16:50.160Z,6.07
2017-12-29T14:19:17.691Z,4.80
2017-12-29T14:21:45.383Z,4.03
2017-12-29T14:24:14.679Z,4.12
2017-12-29T14:26:42.212Z,6.00
2017-12-29T14:29:09.761Z,7.20
2017-12-29T14:31:38.115Z,7.40
2017-12-29T14:34:05.646Z,5.30
2017-12-29T14:36:33.325Z,5.15
2017-12-29T14:39:01.013Z,5.90
2017-12-29T14:41:28.552Z,8.40
2017-12-29T14:43:56.088Z,4.30
2017-12-29T14:46:23.653Z,6.10
2017-12-29T14:48:51.958Z,4.53
2017-12-29T14:51:19.482Z,5.15
2017-12-29T14:53:47.062Z,5.10
2017-12-29T14:56:15.494Z,6.30
2017-12-29T14:58:43.061Z,4.30
2017-12-29T15:01:11.419Z,3.78
2017-12-29T15:03:38.993Z,4.00
2017-12-29T15:06:06.754Z,5.65
2017-12-29T15:08:34.503Z,9.90
2017-12-29T15:11:02.374Z,5.10
2017-12-29T15:13:29.895Z,5.43
2017-12-29T15:15:58.694Z,7.63
2017-12-29T15:18:26.279Z,4.72
2017-12-29T15:20:53.827Z,4.33
2017-12-29T15:23:21.439Z,8.40
2017-12-29T15:25:49.209Z,7.13
2017-12-29T15:28:16.929Z,10.30
2017-12-29T15:30:46.024Z,7.47
2017-12-29T15:33:24.377Z,6.97
2017-12-29T15:44:22.027Z,10.60
2017-12-29T15:46:50.409Z,14.40
2017-12-29T15:49:18.063Z,10.00
2017-12-29T15:51:45.832Z,20.10
2017-12-29T15:54:24.634Z,13.30
2017-12-29T16:04:33.046Z,22.70
2017-12-29T16:07:00.643Z,35.60
2017-12-29T16:09:28.201Z,35.00
2017-12-29T16:11:55.763Z,19.20
2017-12-29T16:14:23.337Z,14.07
2017-12-29T16:16:50.990Z,14.60
2017-12-29T16:19:18.588Z,14.18
2017-12-29T16:21:46.163Z,8.23
2017-12-29T16:24:14.799Z,5.53
2017-12-29T16:26:42.408Z,5.50
2017-12-29T16:29:10.783Z,8.37
2017-12-29T16:31:38.501Z,6.60
2017-12-29T16:34:06.076Z,7.80
2017-12-29T16:36:33.640Z,6.35
2017-12-29T16:39:01.209Z,5.43
2017-12-29T16:41:29.639Z,7.00
2017-12-29T16:43:57.231Z,5.23
2017-12-29T16:46:24.846Z,4.32
2017-12-29T16:48:52.444Z,6.00
2017-12-29T16:51:20.021Z,4.95
2017-12-29T16:53:47.601Z,7.23
2017-12-29T16:56:17.202Z,9.33
2017-12-29T16:58:44.776Z,7.33
2017-12-29T17:01:14.045Z,11.83
2017-12-29T17:03:41.602Z,6.50
2017-12-29T17:06:09.581Z,11.57
2017-12-29T17:08:37.153Z,7.33
2017-12-29T17:11:04.774Z,7.67
2017-12-29T17:13:32.311Z,7.55
2017-12-29T17:16:00.217Z,8.30
2017-12-29T17:18:27.796Z,5.93
2017-12-29T17:20:56.094Z,7.53
2017-12-29T17:23:23.668Z,5.00
2017-12-29T17:25:51.379Z,7.07
2017-12-29T17:28:18.962Z,6.13
2017-12-29T17:30:46.520Z,12.85
2017-12-29T17:33:24.504Z,8.13
2017-12-29T17:39:31.942Z,8.53
2017-12-29T17:42:00.243Z,10.40
2017-12-29T17:44:27.830Z,9.40
2017-12-29T17:46:56.628Z,7.75
2017-12-29T17:49:24.186Z,8.03
2017-12-29T17:51:51.868Z,9.77
2017-12-29T17:54:19.794Z,8.87
2017-12-29T17:56:48.729Z,7.50
2017-12-29T17:59:16.595Z,8.53
2017-12-29T18:04:21.285Z,12.00
2017-12-29T18:06:50.676Z,10.00
2017-12-29T18:09:19.056Z,7.90
2017-12-29T18:11:52.700Z,8.50
2017-12-29T18:14:22.454Z,10.62
2017-12-29T18:16:55.336Z,8.65
2017-12-29T18:19:28.548Z,9.56
2017-12-29T18:21:56.159Z,8.30
2017-12-29T18:24:23.821Z,9.93
2017-12-29T18:26:51.516Z,8.40
2017-12-29T18:29:19.978Z,19.00
2017-12-29T18:31:48.652Z,19.05
2017-12-29T18:34:16.492Z,12.40
2017-12-29T18:36:44.086Z,17.60
2017-12-29T18:39:11.652Z,17.00
2017-12-29T18:41:39.411Z,15.33
2017-12-29T18:44:07.065Z,12.27
2017-12-29T18:46:34.624Z,9.27
2017-12-29T18:49:02.239Z,10.00
2017-12-29T18:54:17.967Z,14.00
2017-12-29T19:10:50.622Z,8.10
2017-12-29T19:13:31.739Z,9.68
2017-12-29T19:15:59.334Z,10.80
2017-12-29T19:18:27.058Z,9.70
2017-12-29T19:20:54.725Z,7.97
2017-12-29T19:23:22.403Z,8.53
2017-12-29T19:25:50.376Z,10.20
2017-12-29T19:28:18.014Z,7.40
2017-12-29T19:30:45.614Z,7.93
2017-12-29T19:33:14.571Z,10.10
2017-12-29T19:35:42.287Z,12.63
2017-12-29T19:38:10.028Z,12.10
2017-12-29T19:40:37.614Z,8.88
2017-12-29T19:43:05.968Z,9.83
2017-12-29T19:45:33.545Z,7.12
2017-12-29T19:48:01.895Z,5.23
2017-12-29T19:50:29.534Z,6.97
2017-12-29T19:52:57.886Z,9.67
2017-12-29T19:55:25.475Z,6.78
2017-12-29T19:57:53.119Z,7.57
2017-12-29T20:00:20.707Z,6.40
2017-12-29T20:02:48.249Z,7.90
2017-12-29T20:05:17.311Z,7.20
2017-12-29T20:07:44.907Z,9.13
2017-12-29T20:10:12.608Z,4.75
2017-12-29T20:12:40.222Z,6.07
2017-12-29T20:15:07.798Z,7.27
2017-12-29T20:17:35.607Z,6.10
2017-12-29T20:20:04.014Z,6.73
2017-12-29T20:22:32.378Z,7.30
2017-12-29T20:25:00.734Z,5.53
2017-12-29T20:27:28.347Z,7.23
2017-12-29T20:29:55.937Z,12.33
2017-12-29T20:32:23.540Z,23.20
2017-12-29T20:34:52.062Z,15.13
2017-12-29T20:37:20.425Z,7.00
2017-12-29T20:39:48.066Z,10.07
2017-12-29T20:42:17.295Z,7.10
2017-12-29T20:44:45.001Z,6.53
2017-12-29T20:47:12.710Z,6.20
2017-12-29T20:49:40.439Z,8.73
2017-12-29T20:52:08.173Z,9.97
2017-12-29T20:54:35.784Z,8.60
2017-12-29T20:57:03.425Z,8.07
2017-12-29T20:59:31.066Z,8.03
2017-12-29T21:01:58.660Z,7.70
2017-12-29T21:04:26.509Z,6.53
2017-12-29T21:06:54.887Z,6.30
2017-12-29T21:09:22.532Z,5.82
2017-12-29T21:11:50.761Z,7.60
2017-12-29T21:14:18.399Z,7.80
2017-12-29T21:16:45.997Z,8.43
2017-12-29T21:19:14.642Z,10.48
2017-12-29T21:21:42.285Z,8.57
2017-12-29T21:24:10.080Z,11.83
2017-12-29T21:26:38.182Z,8.63
2017-12-29T21:29:05.835Z,11.30
2017-12-29T21:31:33.522Z,9.23
2017-12-29T21:34:01.400Z,10.87
2017-12-29T21:36:29.100Z,12.60
2017-12-29T21:38:56.772Z,8.47
2017-12-29T21:41:25.434Z,9.45
2017-12-29T21:43:55.215Z,11.00
2017-12-29T21:46:23.046Z,17.10
2017-12-29T21:48:51.018Z,11.27
2017-12-29T21:51:18.609Z,12.63
2017-12-29T21:53:46.974Z,11.93
2017-12-29T21:56:17.507Z,11.25
2017-12-29T21:58:45.287Z,10.93
2017-12-29T22:01:13.960Z,8.83
2017-12-29T22:03:42.415Z,8.40
2017-12-29T22:06:10.827Z,8.70
2017-12-29T22:08:38.565Z,11.57
2017-12-29T22:11:06.633Z,11.10
2017-12-29T22:13:34.975Z,6.53
2017-12-29T22:16:02.628Z,7.03
2017-12-29T22:18:30.573Z,6.82
2017-12-29T22:20:58.260Z,9.17
2017-12-29T22:23:26.265Z,6.17
2017-12-29T22:25:54.070Z,5.77
2017-12-29T22:28:21.687Z,5.70
2017-12-29T22:30:50.599Z,5.70
2017-12-29T22:33:18.343Z,7.43
2017-12-29T22:35:46.778Z,4.87
2017-12-29T22:38:16.852Z,5.20
2017-12-29T22:40:44.545Z,4.30
2017-12-29T22:43:13.071Z,4.57
2017-12-29T22:45:40.887Z,3.83
2017-12-29T22:48:10.630Z,5.00
2017-12-29T22:50:38.297Z,3.83
2017-12-29T22:53:05.976Z,3.60
2017-12-29T22:55:34.447Z,4.10
2017-12-29T22:58:02.113Z,4.20
2017-12-29T23:00:30.541Z,4.10
2017-12-29T23:02:58.424Z,3.47
2017-12-29T23:05:27.568Z,3.30
2017-12-29T23:07:58.873Z,3.23
2017-12-29T23:10:26.519Z,5.07
2017-12-29T23:12:54.318Z,3.13
2017-12-29T23:15:22.687Z,3.50
2017-12-29T23:17:50.717Z,2.90
2017-12-29T23:20:18.427Z,4.10
2017-12-29T23:22:46.074Z,3.17
2017-12-29T23:25:24.698Z,4.97
2017-12-29T23:33:01.279Z,3.00
2017-12-29T23:35:28.939Z,2.60
2017-12-29T23:37:56.510Z,3.80
2017-12-29T23:40:24.930Z,3.10
2017-12-29T23:42:52.519Z,3.03
2017-12-29T23:45:20.107Z,2.78
2017-12-29T23:47:47.710Z,2.97
2017-12-29T23:50:16.473Z,3.00
2017-12-29T23:52:44.069Z,3.37
2017-12-29T23:55:12.955Z,3.27
2017-12-29T23:57:42.113Z,4.27
